Time;durP1;ratioP1;P1;durP2;ratioP2;P2;SDS_P1;SDS_P2;PMS_P1;PMS_P2;Temp;Humidity;BMP_temperature;BMP_pressure;BME280_temperature;BME280_humidity;BME280_pressure;Samples;Min_cycle;Max_cycle;Signal;HPM_P1;HPM_P2
2021/07/20 00:02:38;;;;;;;15.70;10.07;;;;;;;;;;5091400;28;20049;-62
2021/07/20 00:05:05;;;;;;;16.40;8.98;;;;;;;;;;5112028;28;20019;-62
2021/07/20 00:07:32;;;;;;;18.60;9.52;;;;;;;;;;5112843;28;20178;-62
2021/07/20 00:09:58;;;;;;;18.38;10.45;;;;;;;;;;5112717;28;20011;-62
2021/07/20 00:12:24;;;;;;;17.98;9.45;;;;;;;;;;5110987;28;20024;-62
2021/07/20 00:14:51;;;;;;;17.77;10.20;;;;;;;;;;5093587;28;20041;-62
2021/07/20 00:17:21;;;;;;;18.83;9.27;;;;;;;;;;5112185;28;20020;-62
2021/07/20 00:19:47;;;;;;;15.45;9.10;;;;;;;;;;5112155;28;20119;-63
2021/07/20 00:22:14;;;;;;;17.92;9.75;;;;;;;;;;5110671;28;20053;-63
2021/07/20 00:24:40;;;;;;;18.33;9.43;;;;;;;;;;5112080;28;20034;-63
2021/07/20 00:27:06;;;;;;;18.05;9.55;;;;;;;;;;5111466;28;20024;-62
2021/07/20 00:29:32;;;;;;;18.45;10.52;;;;;;;;;;5110980;28;20043;-62
2021/07/20 00:31:58;;;;;;;23.48;10.05;;;;;;;;;;5109340;28;20053;-62
2021/07/20 00:34:24;;;;;;;21.58;10.32;;;;;;;;;;5112094;28;20042;-63
2021/07/20 00:36:50;;;;;;;17.45;9.82;;;;;;;;;;5111290;28;20020;-62
2021/07/20 00:39:16;;;;;;;21.05;11.07;;;;;;;;;;5093334;28;20036;-62
2021/07/20 00:41:42;;;;;;;20.48;10.50;;;;;;;;;;5110707;28;20031;-62
2021/07/20 00:44:08;;;;;;;20.15;10.18;;;;;;;;;;5109089;28;20511;-62
2021/07/20 00:46:35;;;;;;;23.65;10.05;;;;;;;;;;5112219;28;20028;-62
2021/07/20 00:49:01;;;;;;;19.92;10.50;;;;;;;;;;5111230;28;20039;-62
2021/07/20 00:51:27;;;;;;;24.77;11.48;;;;;;;;;;5108882;27;20016;-62
2021/07/20 00:53:53;;;;;;;22.05;10.23;;;;;;;;;;5093276;28;20042;-62
2021/07/20 00:56:19;;;;;;;20.75;11.95;;;;;;;;;;5111759;28;20031;-62
2021/07/20 00:58:46;;;;;;;20.67;10.18;;;;;;;;;;5111128;28;20023;-62
2021/07/20 01:01:12;;;;;;;23.42;11.23;;;;;;;;;;5090904;28;20043;-62
2021/07/20 01:03:39;;;;;;;21.40;12.20;;;;;;;;;;5107500;28;20043;-62
2021/07/20 01:06:05;;;;;;;20.95;10.80;;;;;;;;;;5112114;28;20114;-63
2021/07/20 01:08:31;;;;;;;16.30;8.63;;;;;;;;;;5110850;28;20457;-63
2021/07/20 01:11:00;;;;;;;25.35;10.45;;;;;;;;;;5089836;28;20107;-63
2021/07/20 01:13:27;;;;;;;20.55;10.18;;;;;;;;;;5111570;28;20114;-62
2021/07/20 01:15:54;;;;;;;20.95;10.88;;;;;;;;;;5111131;28;20164;-63
2021/07/20 01:18:20;;;;;;;19.38;10.23;;;;;;;;;;5092348;28;20024;-62
2021/07/20 01:20:46;;;;;;;24.20;13.02;;;;;;;;;;5110390;28;20024;-62
2021/07/20 01:23:21;;;;;;;22.45;12.52;;;;;;;;;;5107379;28;20069;-62
2021/07/20 01:25:48;;;;;;;22.80;10.45;;;;;;;;;;5110695;28;20028;-63
2021/07/20 01:28:17;;;;;;;21.90;11.60;;;;;;;;;;5110896;28;20023;-62
2021/07/20 01:30:45;;;;;;;24.38;12.95;;;;;;;;;;5109936;28;20019;-62
2021/07/20 01:33:12;;;;;;;21.20;10.68;;;;;;;;;;5109262;28;20511;-62
2021/07/20 01:35:39;;;;;;;23.98;11.27;;;;;;;;;;5111051;28;20031;-62
2021/07/20 01:38:08;;;;;;;24.65;10.43;;;;;;;;;;5111193;27;20076;-62
2021/07/20 01:40:34;;;;;;;21.33;11.32;;;;;;;;;;5108479;28;20027;-63
2021/07/20 01:43:01;;;;;;;23.23;10.52;;;;;;;;;;5087654;28;20043;-62
2021/07/20 01:45:31;;;;;;;21.30;10.45;;;;;;;;;;5110989;28;20027;-63
2021/07/20 01:47:58;;;;;;;23.13;11.13;;;;;;;;;;5091741;28;20024;-63
2021/07/20 01:50:24;;;;;;;23.88;12.02;;;;;;;;;;5110384;27;20027;-62
2021/07/20 01:52:50;;;;;;;19.73;10.60;;;;;;;;;;5109268;28;20039;-63
2021/07/20 01:55:17;;;;;;;19.67;10.43;;;;;;;;;;5110321;28;20034;-62
2021/07/20 01:57:43;;;;;;;23.38;10.35;;;;;;;;;;5108855;28;20048;-63
2021/07/20 02:00:15;;;;;;;21.67;12.57;;;;;;;;;;5108671;28;20027;-62
2021/07/20 02:03:01;;;;;;;;;;;;;;;;;;5107381;28;20050;-62
2021/07/20 02:08:27;;;;;;;24.55;11.40;;;;;;;;;;5107017;28;20107;-63
2021/07/20 02:11:16;;;;;;;23.17;11.60;;;;;;;;;;5108034;28;20525;-62
2021/07/20 02:13:45;;;;;;;24.65;12.70;;;;;;;;;;5109006;28;20492;-62
2021/07/20 02:16:13;;;;;;;23.40;12.38;;;;;;;;;;5110562;28;20126;-62
2021/07/20 02:18:43;;;;;;;25.35;12.70;;;;;;;;;;5109632;28;20054;-62
2021/07/20 02:21:09;;;;;;;27.23;12.60;;;;;;;;;;5108055;28;20024;-63
2021/07/20 02:23:37;;;;;;;25.48;12.32;;;;;;;;;;5107383;28;20065;-62
2021/07/20 02:26:04;;;;;;;24.67;12.45;;;;;;;;;;5110224;28;20024;-62
2021/07/20 02:28:31;;;;;;;22.25;12.43;;;;;;;;;;5109758;28;20038;-62
2021/07/20 02:30:58;;;;;;;25.63;13.63;;;;;;;;;;5107451;28;20035;-62
2021/07/20 02:33:24;;;;;;;22.52;11.63;;;;;;;;;;5109440;28;20063;-62
2021/07/20 02:35:51;;;;;;;26.13;12.23;;;;;;;;;;5091124;28;20015;-63
2021/07/20 02:38:18;;;;;;;27.73;13.43;;;;;;;;;;5090318;28;20031;-62
2021/07/20 02:40:44;;;;;;;28.55;12.70;;;;;;;;;;5109264;28;20024;-63
2021/07/20 02:43:10;;;;;;;26.40;13.45;;;;;;;;;;5105847;28;20106;-63
2021/07/20 02:45:37;;;;;;;27.95;13.93;;;;;;;;;;5110315;28;20020;-62
2021/07/20 02:48:04;;;;;;;25.25;12.43;;;;;;;;;;5110000;28;20037;-63
2021/07/20 02:50:30;;;;;;;27.55;12.73;;;;;;;;;;5108837;28;20065;-63
2021/07/20 02:52:57;;;;;;;25.17;12.15;;;;;;;;;;5088803;28;20031;-63
2021/07/20 02:55:23;;;;;;;24.25;11.70;;;;;;;;;;5091567;28;20487;-62
2021/07/20 02:57:49;;;;;;;27.00;13.10;;;;;;;;;;5109520;28;20032;-63
2021/07/20 03:00:16;;;;;;;26.73;12.50;;;;;;;;;;5108978;28;20039;-63
2021/07/20 03:02:44;;;;;;;31.00;13.15;;;;;;;;;;5106094;28;20028;-62
2021/07/20 03:05:11;;;;;;;25.63;13.48;;;;;;;;;;5108310;28;20140;-63
2021/07/20 03:07:37;;;;;;;26.75;12.15;;;;;;;;;;5108794;28;20023;-63
2021/07/20 03:10:03;;;;;;;24.02;12.40;;;;;;;;;;5107130;28;20024;-62
2021/07/20 03:12:30;;;;;;;24.55;13.13;;;;;;;;;;5108822;28;20166;-62
2021/07/20 03:14:57;;;;;;;26.60;12.85;;;;;;;;;;5109256;28;20461;-62
2021/07/20 03:17:24;;;;;;;26.83;12.65;;;;;;;;;;5110128;28;20024;-62
2021/07/20 03:19:51;;;;;;;26.90;13.20;;;;;;;;;;5090716;28;20027;-63
2021/07/20 03:22:18;;;;;;;25.75;13.13;;;;;;;;;;5107537;28;20027;-62
2021/07/20 03:24:45;;;;;;;31.10;14.40;;;;;;;;;;5108879;28;20032;-62
2021/07/20 03:27:12;;;;;;;32.15;14.57;;;;;;;;;;5109414;28;20031;-62
2021/07/20 03:29:42;;;;;;;28.13;13.77;;;;;;;;;;5108576;28;20510;-62
2021/07/20 03:32:10;;;;;;;31.00;15.15;;;;;;;;;;5107667;28;20108;-62
2021/07/20 03:34:36;;;;;;;27.63;14.10;;;;;;;;;;5109321;28;20038;-62
2021/07/20 03:37:04;;;;;;;25.80;14.52;;;;;;;;;;5093049;28;20375;-62
2021/07/20 03:39:30;;;;;;;30.80;15.43;;;;;;;;;;5092438;28;20027;-62
2021/07/20 03:41:56;;;;;;;26.60;14.23;;;;;;;;;;5109463;28;20019;-62
2021/07/20 03:44:23;;;;;;;31.85;14.88;;;;;;;;;;5112330;28;20100;-62
2021/07/20 03:46:49;;;;;;;27.95;14.40;;;;;;;;;;5112891;28;20023;-62
2021/07/20 03:49:16;;;;;;;26.75;13.27;;;;;;;;;;5094605;28;20032;-63
2021/07/20 03:51:43;;;;;;;24.67;12.90;;;;;;;;;;5091205;28;20120;-62
2021/07/20 03:54:09;;;;;;;25.40;13.13;;;;;;;;;;5112802;28;20027;-62
2021/07/20 03:56:35;;;;;;;25.17;12.93;;;;;;;;;;5112195;28;20051;-62
2021/07/20 03:59:08;;;;;;;26.45;13.30;;;;;;;;;;5112626;28;20139;-62
2021/07/20 04:01:35;;;;;;;23.05;12.65;;;;;;;;;;5109702;28;20020;-62
2021/07/20 04:04:02;;;;;;;23.27;12.90;;;;;;;;;;5110517;28;20047;-62
2021/07/20 04:06:29;;;;;;;23.85;13.15;;;;;;;;;;5111617;28;20024;-62
2021/07/20 04:08:56;;;;;;;23.40;12.27;;;;;;;;;;5111790;28;20478;-62
2021/07/20 04:11:22;;;;;;;24.40;12.85;;;;;;;;;;5111501;28;20466;-62
2021/07/20 04:13:49;;;;;;;27.33;13.00;;;;;;;;;;5111229;28;20194;-62
2021/07/20 04:16:16;;;;;;;29.30;13.45;;;;;;;;;;5112250;28;20042;-62
2021/07/20 04:18:43;;;;;;;25.80;13.00;;;;;;;;;;5112354;28;20023;-63
2021/07/20 04:21:09;;;;;;;25.75;12.57;;;;;;;;;;5111010;28;20107;-62
2021/07/20 04:23:36;;;;;;;29.17;12.95;;;;;;;;;;5111648;28;20522;-62
2021/07/20 04:26:03;;;;;;;25.25;12.50;;;;;;;;;;5093993;28;20024;-62
2021/07/20 04:28:29;;;;;;;27.77;13.48;;;;;;;;;;5112629;28;20110;-62
2021/07/20 04:30:57;;;;;;;23.58;12.52;;;;;;;;;;5112296;27;20039;-62
2021/07/20 04:33:27;;;;;;;29.63;13.82;;;;;;;;;;5110962;28;20031;-62
2021/07/20 04:35:57;;;;;;;27.88;12.32;;;;;;;;;;5111337;28;20042;-62
2021/07/20 04:38:27;;;;;;;30.77;12.85;;;;;;;;;;5110502;28;20055;-62
2021/07/20 04:40:53;;;;;;;32.42;13.90;;;;;;;;;;5105940;28;20019;-62
2021/07/20 04:43:20;;;;;;;28.30;13.60;;;;;;;;;;5111559;28;20042;-62
2021/07/20 04:45:47;;;;;;;34.85;14.30;;;;;;;;;;5112104;28;20053;-62
2021/07/20 04:48:14;;;;;;;24.80;13.68;;;;;;;;;;5111334;28;20028;-62
2021/07/20 04:50:40;;;;;;;29.63;14.25;;;;;;;;;;5107898;28;20040;-63
2021/07/20 04:53:06;;;;;;;26.63;12.05;;;;;;;;;;5106064;28;20238;-62
2021/07/20 04:55:34;;;;;;;25.02;13.48;;;;;;;;;;5108543;28;20035;-63
2021/07/20 04:58:02;;;;;;;32.00;14.48;;;;;;;;;;5111232;28;20035;-62
2021/07/20 05:00:28;;;;;;;27.80;14.25;;;;;;;;;;5110558;28;20076;-63
2021/07/20 05:02:56;;;;;;;28.30;14.30;;;;;;;;;;5110179;28;20033;-62
2021/07/20 05:05:24;;;;;;;29.40;13.98;;;;;;;;;;5090129;28;20060;-63
2021/07/20 05:07:51;;;;;;;27.60;14.10;;;;;;;;;;5112283;28;20023;-62
2021/07/20 05:10:18;;;;;;;30.50;16.98;;;;;;;;;;5112565;28;20110;-62
2021/07/20 05:12:44;;;;;;;28.02;13.18;;;;;;;;;;5110963;28;20053;-62
2021/07/20 05:15:14;;;;;;;27.08;14.07;;;;;;;;;;5109222;28;20052;-62
2021/07/20 05:17:40;;;;;;;33.17;15.18;;;;;;;;;;5111535;28;20115;-63
2021/07/20 05:20:07;;;;;;;31.55;14.63;;;;;;;;;;5092360;28;20443;-62
2021/07/20 05:22:35;;;;;;;31.52;15.23;;;;;;;;;;5110835;28;20098;-62
2021/07/20 05:25:02;;;;;;;29.63;14.02;;;;;;;;;;5093704;28;20115;-63
2021/07/20 05:27:30;;;;;;;29.67;14.82;;;;;;;;;;5112123;28;20098;-62
2021/07/20 05:29:57;;;;;;;31.70;13.90;;;;;;;;;;5108200;28;20093;-63
2021/07/20 05:32:23;;;;;;;23.77;13.25;;;;;;;;;;5110929;28;20030;-62
2021/07/20 05:34:49;;;;;;;28.70;14.02;;;;;;;;;;5093530;28;20078;-62
2021/07/20 05:37:19;;;;;;;34.90;15.73;;;;;;;;;;5096687;28;20028;-62
2021/07/20 05:39:48;;;;;;;31.10;15.30;;;;;;;;;;5111609;28;20068;-62
2021/07/20 05:42:18;;;;;;;27.23;14.73;;;;;;;;;;5110297;28;20092;-63
2021/07/20 05:44:47;;;;;;;28.73;14.52;;;;;;;;;;5107678;28;20032;-63
2021/07/20 05:47:17;;;;;;;24.67;12.52;;;;;;;;;;5111041;28;20023;-62
2021/07/20 05:49:43;;;;;;;31.80;15.68;;;;;;;;;;5089984;28;20023;-62
2021/07/20 05:52:09;;;;;;;29.58;14.40;;;;;;;;;;5110256;28;20023;-63
2021/07/20 05:54:36;;;;;;;32.47;13.77;;;;;;;;;;5110223;28;20084;-62
2021/07/20 05:57:02;;;;;;;29.60;15.68;;;;;;;;;;5109965;28;20032;-63
2021/07/20 05:59:28;;;;;;;28.15;14.32;;;;;;;;;;5091142;28;20119;-63
2021/07/20 06:01:55;;;;;;;32.22;14.65;;;;;;;;;;5090151;28;20035;-63
2021/07/20 06:04:22;;;;;;;32.22;14.98;;;;;;;;;;5109065;28;20072;-62
2021/07/20 06:06:49;;;;;;;24.92;13.32;;;;;;;;;;5108072;28;20024;-63
2021/07/20 06:09:17;;;;;;;30.25;14.20;;;;;;;;;;5110586;28;20027;-62
2021/07/20 06:11:43;;;;;;;29.38;14.68;;;;;;;;;;5090820;28;20043;-63
2021/07/20 06:14:11;;;;;;;29.17;13.63;;;;;;;;;;5109924;28;20043;-62
2021/07/20 06:16:39;;;;;;;28.35;13.82;;;;;;;;;;5110194;28;20569;-62
2021/07/20 06:19:06;;;;;;;32.00;15.85;;;;;;;;;;5109831;28;20035;-62
2021/07/20 06:21:33;;;;;;;31.40;14.63;;;;;;;;;;5108363;28;20114;-62
2021/07/20 06:24:02;;;;;;;36.42;16.10;;;;;;;;;;5103833;28;20096;-62
2021/07/20 06:26:28;;;;;;;41.88;16.80;;;;;;;;;;5107391;28;20019;-62
2021/07/20 06:28:58;;;;;;;28.80;14.55;;;;;;;;;;5091058;28;20036;-62
2021/07/20 06:31:24;;;;;;;33.25;16.70;;;;;;;;;;5108256;28;20036;-62
2021/07/20 06:33:51;;;;;;;27.80;14.60;;;;;;;;;;5109604;28;20081;-62
2021/07/20 06:36:18;;;;;;;34.33;14.70;;;;;;;;;;5111658;28;20110;-62
2021/07/20 06:38:44;;;;;;;30.15;14.32;;;;;;;;;;5110690;28;20415;-62
2021/07/20 06:41:11;;;;;;;34.30;15.13;;;;;;;;;;5115502;27;20047;-62
2021/07/20 06:43:38;;;;;;;29.27;15.23;;;;;;;;;;5089485;28;20506;-62
2021/07/20 06:46:06;;;;;;;27.23;13.55;;;;;;;;;;5109810;28;20020;-63
2021/07/20 06:48:32;;;;;;;29.65;14.48;;;;;;;;;;5109327;28;20044;-62
2021/07/20 06:50:58;;;;;;;30.92;13.90;;;;;;;;;;5107471;28;20411;-62
2021/07/20 06:53:24;;;;;;;31.95;14.30;;;;;;;;;;5107466;28;20028;-62
2021/07/20 06:55:55;;;;;;;30.33;14.95;;;;;;;;;;5111009;28;20020;-62
2021/07/20 06:58:21;;;;;;;28.90;14.88;;;;;;;;;;5110666;28;20023;-62
2021/07/20 07:00:49;;;;;;;29.73;14.30;;;;;;;;;;5083538;28;20039;-62
2021/07/20 07:03:16;;;;;;;27.42;13.60;;;;;;;;;;5106522;28;20059;-62
2021/07/20 07:05:42;;;;;;;25.25;13.07;;;;;;;;;;5110778;28;20068;-62
2021/07/20 07:08:09;;;;;;;27.83;13.90;;;;;;;;;;5108867;28;20020;-63
2021/07/20 07:10:35;;;;;;;30.58;13.15;;;;;;;;;;5087947;28;20589;-63
2021/07/20 07:13:05;;;;;;;32.42;14.13;;;;;;;;;;5111297;28;20050;-62
2021/07/20 07:15:31;;;;;;;27.65;13.48;;;;;;;;;;5112890;27;20040;-62
2021/07/20 07:17:58;;;;;;;28.95;14.98;;;;;;;;;;5112419;28;20031;-62
2021/07/20 07:20:25;;;;;;;30.92;13.77;;;;;;;;;;5094032;28;20020;-62
2021/07/20 07:22:52;;;;;;;27.48;12.70;;;;;;;;;;5106551;28;20020;-62
2021/07/20 07:25:18;;;;;;;27.08;14.05;;;;;;;;;;5111928;28;20020;-62
2021/07/20 07:27:45;;;;;;;24.88;12.15;;;;;;;;;;5111699;28;20035;-62
2021/07/20 07:30:11;;;;;;;27.45;12.43;;;;;;;;;;5113445;28;20115;-62
2021/07/20 07:32:38;;;;;;;21.88;11.57;;;;;;;;;;5094694;28;20019;-63
2021/07/20 07:35:05;;;;;;;27.02;13.15;;;;;;;;;;5111461;28;20264;-62
2021/07/20 07:37:33;;;;;;;26.20;13.57;;;;;;;;;;5113302;28;20024;-62
2021/07/20 07:40:00;;;;;;;25.52;13.82;;;;;;;;;;5108604;28;20120;-62
2021/07/20 07:42:28;;;;;;;24.92;12.68;;;;;;;;;;5112249;28;20483;-62
2021/07/20 07:44:55;;;;;;;25.30;13.75;;;;;;;;;;5113116;28;20024;-62
2021/07/20 07:47:21;;;;;;;28.02;13.55;;;;;;;;;;5107684;28;20023;-62
2021/07/20 07:49:48;;;;;;;24.00;12.68;;;;;;;;;;5117709;27;20506;-63
2021/07/20 07:52:14;;;;;;;28.50;12.63;;;;;;;;;;5112011;28;20050;-62
2021/07/20 07:54:41;;;;;;;26.75;12.98;;;;;;;;;;5112710;28;20027;-62
2021/07/20 07:57:10;;;;;;;23.90;12.73;;;;;;;;;;5113017;28;20028;-63
2021/07/20 07:59:38;;;;;;;25.80;12.13;;;;;;;;;;5109298;28;20019;-62
2021/07/20 08:02:05;;;;;;;24.23;11.48;;;;;;;;;;5092738;28;20066;-63
2021/07/20 08:04:34;;;;;;;20.95;10.30;;;;;;;;;;5111807;28;20067;-62
2021/07/20 08:07:00;;;;;;;20.55;10.85;;;;;;;;;;5113157;28;20026;-63
2021/07/20 08:09:27;;;;;;;21.33;11.52;;;;;;;;;;5112407;28;20035;-62
2021/07/20 08:11:55;;;;;;;24.35;12.60;;;;;;;;;;5111460;28;20491;-63
2021/07/20 08:14:21;;;;;;;21.52;11.98;;;;;;;;;;5111692;28;20034;-62
2021/07/20 08:16:50;;;;;;;24.45;11.15;;;;;;;;;;5093795;28;20028;-63
2021/07/20 08:19:19;;;;;;;21.52;10.25;;;;;;;;;;5108606;27;20135;-63
2021/07/20 08:21:45;;;;;;;21.35;12.18;;;;;;;;;;5095114;28;20035;-62
2021/07/20 08:24:12;;;;;;;24.35;12.60;;;;;;;;;;5113369;27;20031;-62
2021/07/20 08:26:53;;;;;;;20.98;12.05;;;;;;;;;;5093192;28;20032;-62
2021/07/20 08:29:26;;;;;;;20.55;10.80;;;;;;;;;;5094187;28;20035;-62
2021/07/20 08:31:57;;;;;;;22.35;11.43;;;;;;;;;;5089310;28;20077;-62
2021/07/20 08:34:24;;;;;;;21.90;11.13;;;;;;;;;;5103040;28;20061;-63
2021/07/20 08:36:50;;;;;;;25.10;12.95;;;;;;;;;;5106093;28;20032;-63
2021/07/20 08:39:17;;;;;;;25.30;13.07;;;;;;;;;;5108281;28;20039;-63
2021/07/20 08:41:43;;;;;;;22.60;11.80;;;;;;;;;;5087695;28;20028;-62
2021/07/20 08:44:35;;;;;;;23.00;12.45;;;;;;;;;;5106354;28;20027;-62
2021/07/20 08:47:09;;;;;;;21.35;10.85;;;;;;;;;;5102605;28;20036;-62
2021/07/20 08:49:52;;;;;;;23.48;11.82;;;;;;;;;;5108115;28;20039;-62
2021/07/20 08:52:21;;;;;;;22.75;11.93;;;;;;;;;;5097961;28;20031;-63
2021/07/20 08:55:01;;;;;;;25.13;11.57;;;;;;;;;;5106258;28;20036;-62
2021/07/20 08:57:35;;;;;;;25.48;12.57;;;;;;;;;;5107695;27;20035;-62
2021/07/20 09:00:09;;;;;;;23.42;11.43;;;;;;;;;;5107599;27;20108;-62
2021/07/20 09:02:54;;;;;;;24.35;12.82;;;;;;;;;;5107432;28;20168;-62
2021/07/20 09:05:26;;;;;;;21.38;11.68;;;;;;;;;;5104971;28;20046;-62
2021/07/20 09:07:52;;;;;;;23.85;12.90;;;;;;;;;;5107697;28;20060;-62
2021/07/20 09:10:21;;;;;;;25.65;13.45;;;;;;;;;;5108043;28;20027;-62
2021/07/20 09:12:49;;;;;;;23.75;11.20;;;;;;;;;;5101121;28;20027;-62
2021/07/20 09:15:20;;;;;;;22.13;11.68;;;;;;;;;;5107411;28;20063;-63
2021/07/20 09:18:05;;;;;;;21.47;11.37;;;;;;;;;;5107423;28;20472;-62
2021/07/20 09:20:34;;;;;;;28.17;13.55;;;;;;;;;;5109301;28;20342;-62
2021/07/20 09:23:12;;;;;;;22.23;11.90;;;;;;;;;;5107048;28;20092;-62
2021/07/20 09:25:42;;;;;;;21.63;12.02;;;;;;;;;;5110121;28;20024;-62
2021/07/20 09:28:14;;;;;;;20.15;12.30;;;;;;;;;;5109660;28;20591;-62
2021/07/20 09:30:46;;;;;;;23.40;11.45;;;;;;;;;;5110558;27;20019;-62
2021/07/20 09:33:23;;;;;;;25.30;13.95;;;;;;;;;;5107720;28;20032;-62
2021/07/20 09:36:08;;;;;;;23.98;13.18;;;;;;;;;;5102868;28;20262;-62
2021/07/20 09:38:40;;;;;;;25.00;13.00;;;;;;;;;;5080476;28;20027;-61
2021/07/20 09:41:17;;;;;;;25.77;13.43;;;;;;;;;;5096281;28;20027;-62
2021/07/20 09:43:53;;;;;;;26.10;13.07;;;;;;;;;;5081909;28;20044;-62
2021/07/20 09:46:24;;;;;;;23.15;12.23;;;;;;;;;;5098954;28;20491;-62
2021/07/20 09:48:54;;;;;;;24.05;12.80;;;;;;;;;;5108088;27;20491;-62
2021/07/20 09:51:26;;;;;;;23.75;13.20;;;;;;;;;;5089633;28;20024;-62
2021/07/20 09:54:11;;;;;;;22.83;11.98;;;;;;;;;;5104019;28;20076;-64
2021/07/20 09:56:56;;;;;;;29.48;13.60;;;;;;;;;;5096746;27;20028;-61
2021/07/20 09:59:40;;;;;;;25.05;13.77;;;;;;;;;;5099166;28;20024;-62
2021/07/20 10:02:25;;;;;;;26.02;13.13;;;;;;;;;;5100314;28;20046;-63
2021/07/20 10:04:54;;;;;;;27.25;14.10;;;;;;;;;;5106552;27;20084;-62
2021/07/20 10:07:28;;;;;;;25.10;13.35;;;;;;;;;;5089917;28;20372;-62
2021/07/20 10:09:58;;;;;;;24.73;14.27;;;;;;;;;;5107384;28;20027;-62
2021/07/20 10:12:45;;;;;;;22.90;13.63;;;;;;;;;;5104026;28;20024;-62
2021/07/20 10:15:13;;;;;;;23.88;14.38;;;;;;;;;;5091746;28;20427;-62
2021/07/20 10:18:00;;;;;;;26.58;13.63;;;;;;;;;;5080197;28;20020;-62
2021/07/20 10:20:34;;;;;;;26.83;14.68;;;;;;;;;;5103408;28;20055;-62
2021/07/20 10:23:19;;;;;;;27.60;13.07;;;;;;;;;;5102880;27;20357;-62
2021/07/20 10:25:47;;;;;;;27.27;13.90;;;;;;;;;;5105987;28;20213;-62
2021/07/20 10:28:23;;;;;;;23.73;14.13;;;;;;;;;;5110045;28;20032;-62
2021/07/20 10:30:53;;;;;;;27.60;14.73;;;;;;;;;;5105123;28;20034;-62
2021/07/20 10:33:23;;;;;;;24.92;14.57;;;;;;;;;;5105519;28;20035;-62
2021/07/20 10:35:55;;;;;;;26.25;13.63;;;;;;;;;;5104947;28;20024;-62
2021/07/20 10:38:23;;;;;;;21.75;12.45;;;;;;;;;;5093629;28;20024;-63
2021/07/20 10:40:51;;;;;;;26.17;14.85;;;;;;;;;;5106256;28;20016;-62
2021/07/20 10:43:17;;;;;;;22.02;13.82;;;;;;;;;;5103865;28;20019;-62
2021/07/20 10:45:46;;;;;;;21.27;12.05;;;;;;;;;;5103954;28;20020;-63
2021/07/20 10:48:12;;;;;;;24.92;13.52;;;;;;;;;;5098592;28;20515;-62
2021/07/20 10:50:50;;;;;;;24.30;13.23;;;;;;;;;;5103441;28;20051;-62
2021/07/20 10:53:35;;;;;;;21.58;12.90;;;;;;;;;;5097718;28;20027;-62
2021/07/20 10:56:19;;;;;;;24.50;12.77;;;;;;;;;;5099461;28;20050;-62
2021/07/20 10:58:45;;;;;;;24.45;14.02;;;;;;;;;;5097332;28;20039;-64
2021/07/20 11:01:21;;;;;;;21.30;12.57;;;;;;;;;;5091964;28;20024;-63
2021/07/20 11:03:53;;;;;;;25.48;12.93;;;;;;;;;;5092612;28;20166;-63
2021/07/20 11:06:21;;;;;;;25.77;14.30;;;;;;;;;;5093057;28;20032;-63
2021/07/20 11:08:49;;;;;;;24.70;12.73;;;;;;;;;;5092663;28;20124;-62
2021/07/20 11:11:20;;;;;;;22.70;12.45;;;;;;;;;;5088407;28;20023;-62
2021/07/20 11:13:50;;;;;;;24.15;11.73;;;;;;;;;;5093339;28;20579;-63
2021/07/20 11:16:17;;;;;;;24.85;13.82;;;;;;;;;;5095070;28;20035;-63
2021/07/20 11:18:45;;;;;;;23.05;11.50;;;;;;;;;;5096948;28;20031;-63
2021/07/20 11:21:12;;;;;;;25.63;13.35;;;;;;;;;;5092033;28;20343;-63
2021/07/20 11:23:40;;;;;;;22.02;12.85;;;;;;;;;;5097563;28;20094;-63
2021/07/20 11:26:06;;;;;;;20.88;12.43;;;;;;;;;;5097408;28;20100;-63
2021/07/20 11:28:33;;;;;;;22.30;12.43;;;;;;;;;;5099940;28;20020;-64
2021/07/20 11:31:07;;;;;;;23.50;12.55;;;;;;;;;;5098104;28;20031;-64
2021/07/20 11:33:46;;;;;;;22.02;12.95;;;;;;;;;;5095463;28;20411;-63
2021/07/20 11:36:14;;;;;;;21.98;13.20;;;;;;;;;;5079370;28;20521;-63
2021/07/20 11:38:44;;;;;;;22.85;13.45;;;;;;;;;;5078849;28;20088;-63
2021/07/20 11:41:13;;;;;;;20.27;12.70;;;;;;;;;;5093489;28;20085;-63
2021/07/20 11:43:42;;;;;;;23.85;13.15;;;;;;;;;;5099083;28;20034;-63
2021/07/20 11:46:11;;;;;;;21.92;12.55;;;;;;;;;;5101446;28;20028;-63
2021/07/20 11:48:49;;;;;;;21.77;12.80;;;;;;;;;;5101728;28;20039;-63
2021/07/20 11:51:28;;;;;;;20.30;11.25;;;;;;;;;;5097662;28;20061;-63
2021/07/20 11:53:54;;;;;;;23.55;12.32;;;;;;;;;;5100477;28;20248;-63
2021/07/20 11:56:26;;;;;;;20.98;12.63;;;;;;;;;;5100487;27;20031;-63
2021/07/20 11:59:07;;;;;;;21.35;11.68;;;;;;;;;;5104106;28;20128;-63
2021/07/20 12:01:52;;;;;;;18.23;10.98;;;;;;;;;;5101330;28;20019;-63
2021/07/20 12:04:27;;;;;;;20.50;11.70;;;;;;;;;;5104401;27;20028;-63
2021/07/20 12:07:02;;;;;;;22.60;11.23;;;;;;;;;;5103534;27;20050;-63
2021/07/20 12:09:46;;;;;;;17.80;11.52;;;;;;;;;;5087832;28;20069;-63
2021/07/20 12:12:13;;;;;;;19.25;12.05;;;;;;;;;;5086844;27;20019;-63
2021/07/20 12:14:41;;;;;;;19.63;12.00;;;;;;;;;;5084789;28;20031;-63
2021/07/20 12:17:08;;;;;;;19.67;10.82;;;;;;;;;;5104042;28;20482;-63
2021/07/20 12:19:37;;;;;;;19.98;12.75;;;;;;;;;;5104887;28;20086;-63
2021/07/20 12:22:06;;;;;;;19.05;11.45;;;;;;;;;;5101566;27;20020;-63
2021/07/20 12:24:34;;;;;;;23.35;13.20;;;;;;;;;;5083999;28;20059;-63
2021/07/20 12:27:00;;;;;;;19.33;11.88;;;;;;;;;;5103695;28;20076;-63
2021/07/20 12:29:29;;;;;;;18.70;11.25;;;;;;;;;;5104295;28;20495;-63
2021/07/20 12:31:55;;;;;;;22.52;12.90;;;;;;;;;;5100960;27;20060;-63
2021/07/20 12:34:22;;;;;;;22.48;12.43;;;;;;;;;;5103426;27;20031;-63
2021/07/20 12:36:48;;;;;;;19.27;11.02;;;;;;;;;;5087092;28;20080;-63
2021/07/20 12:39:23;;;;;;;18.20;11.27;;;;;;;;;;5109073;27;20024;-62
2021/07/20 12:41:49;;;;;;;18.20;11.52;;;;;;;;;;5102254;28;20399;-63
2021/07/20 12:44:16;;;;;;;19.35;11.95;;;;;;;;;;5110869;27;20027;-62
2021/07/20 12:46:42;;;;;;;18.52;10.82;;;;;;;;;;5096467;28;20040;-64
2021/07/20 12:49:10;;;;;;;18.55;11.32;;;;;;;;;;5101305;28;20119;-63
2021/07/20 12:51:44;;;;;;;18.42;10.27;;;;;;;;;;5101903;28;20023;-63
2021/07/20 12:54:10;;;;;;;15.07;9.43;;;;;;;;;;5104425;27;20030;-64
2021/07/20 12:56:36;;;;;;;18.85;11.52;;;;;;;;;;5104353;27;20029;-63
2021/07/20 12:59:06;;;;;;;18.42;9.88;;;;;;;;;;5105520;28;20028;-63
2021/07/20 13:01:33;;;;;;;20.83;10.18;;;;;;;;;;5101217;28;20103;-63
2021/07/20 13:04:00;;;;;;;15.50;9.45;;;;;;;;;;5103089;28;20161;-63
2021/07/20 13:06:27;;;;;;;14.23;9.52;;;;;;;;;;5104372;28;20023;-64
2021/07/20 13:08:53;;;;;;;18.20;9.60;;;;;;;;;;5103544;28;20030;-63
2021/07/20 13:11:19;;;;;;;18.35;10.05;;;;;;;;;;5102756;27;20033;-63
2021/07/20 13:13:46;;;;;;;16.42;10.32;;;;;;;;;;5105827;27;20116;-63
2021/07/20 13:16:20;;;;;;;19.63;9.45;;;;;;;;;;5104320;27;20119;-63
2021/07/20 13:18:49;;;;;;;15.75;8.65;;;;;;;;;;5104015;27;20499;-67
2021/07/20 13:21:17;;;;;;;15.07;9.25;;;;;;;;;;5102262;28;20046;-63
2021/07/20 13:23:44;;;;;;;20.00;9.60;;;;;;;;;;5103325;27;20064;-63
2021/07/20 13:26:11;;;;;;;15.07;8.70;;;;;;;;;;5106174;27;20016;-63
2021/07/20 13:28:37;;;;;;;16.33;9.35;;;;;;;;;;5104022;27;20027;-63
2021/07/20 13:31:04;;;;;;;15.90;8.88;;;;;;;;;;5101947;28;20032;-63
2021/07/20 13:33:31;;;;;;;16.52;8.13;;;;;;;;;;5086729;28;20038;-63
2021/07/20 13:35:58;;;;;;;16.42;8.57;;;;;;;;;;5103088;28;20494;-63
2021/07/20 13:38:34;;;;;;;16.60;9.70;;;;;;;;;;5107186;27;20561;-63
2021/07/20 13:41:02;;;;;;;15.38;8.15;;;;;;;;;;5099915;28;20107;-63
2021/07/20 13:43:30;;;;;;;17.08;8.85;;;;;;;;;;5102015;28;21470;-63
2021/07/20 13:45:58;;;;;;;15.18;8.38;;;;;;;;;;5103450;27;20101;-63
2021/07/20 13:48:25;;;;;;;14.70;7.65;;;;;;;;;;5102560;28;20047;-63
2021/07/20 13:50:52;;;;;;;13.93;7.75;;;;;;;;;;5099589;28;20062;-63
2021/07/20 13:53:23;;;;;;;12.63;7.03;;;;;;;;;;5099911;28;20068;-63
2021/07/20 13:55:52;;;;;;;13.07;7.28;;;;;;;;;;5094427;28;20028;-62
2021/07/20 13:58:19;;;;;;;12.82;8.25;;;;;;;;;;5102221;28;20418;-63
2021/07/20 14:00:45;;;;;;;16.05;8.80;;;;;;;;;;5098337;28;20526;-63
2021/07/20 14:03:11;;;;;;;12.63;8.07;;;;;;;;;;5086220;27;20130;-63
2021/07/20 14:05:38;;;;;;;14.07;8.63;;;;;;;;;;5098056;27;20020;-63
2021/07/20 14:08:05;;;;;;;15.32;8.70;;;;;;;;;;5105673;28;20023;-63
2021/07/20 14:10:32;;;;;;;14.45;8.23;;;;;;;;;;5108006;28;20031;-63
2021/07/20 14:12:59;;;;;;;14.32;8.05;;;;;;;;;;5108702;28;20080;-63
2021/07/20 14:15:27;;;;;;;13.93;7.65;;;;;;;;;;5106512;28;20118;-63
2021/07/20 14:17:54;;;;;;;18.52;7.88;;;;;;;;;;5109485;28;20041;-63
2021/07/20 14:20:21;;;;;;;13.48;8.07;;;;;;;;;;5107143;28;20023;-63
2021/07/20 14:22:47;;;;;;;14.93;8.70;;;;;;;;;;5105117;28;20106;-63
2021/07/20 14:25:13;;;;;;;15.45;8.40;;;;;;;;;;5102480;28;20016;-63
2021/07/20 14:27:40;;;;;;;17.17;9.73;;;;;;;;;;5087144;28;20022;-63
2021/07/20 14:30:10;;;;;;;15.32;9.93;;;;;;;;;;5087787;27;20039;-63
2021/07/20 14:32:37;;;;;;;13.40;8.60;;;;;;;;;;5106900;28;20193;-63